createdAt,value
2023-11-30T00:04:47.859Z,4.20
2023-11-30T00:09:49.928Z,2.67
2023-11-30T00:14:54.682Z,8.30
2023-11-30T00:19:59.621Z,6.20
2023-11-30T00:25:01.980Z,6.50
2023-11-30T00:30:04.437Z,3.28
2023-11-30T00:35:07.072Z,3.53
2023-11-30T00:40:09.879Z,4.63
2023-11-30T00:45:12.125Z,4.20
2023-11-30T00:55:16.001Z,15.45
2023-11-30T01:00:18.303Z,3.03
2023-11-30T01:05:20.326Z,3.95
2023-11-30T01:15:24.471Z,3.35
2023-11-30T01:25:28.381Z,3.83
2023-11-30T01:30:30.397Z,6.25
2023-11-30T01:35:32.599Z,5.93
2023-11-30T01:45:39.055Z,1.90
2023-11-30T01:50:41.554Z,4.05
2023-11-30T01:55:43.535Z,3.53
2023-11-30T02:00:46.077Z,2.30
2023-11-30T02:05:52.704Z,3.42
2023-11-30T02:10:54.857Z,1.95
2023-11-30T02:15:56.731Z,3.15
2023-11-30T02:21:01.567Z,3.53
2023-11-30T02:26:03.352Z,2.72
2023-11-30T02:31:07.846Z,1.42
2023-11-30T02:36:13.843Z,3.95
2023-11-30T02:41:18.251Z,3.38
2023-11-30T02:46:22.686Z,4.97
2023-11-30T02:51:24.765Z,1.05
2023-11-30T02:56:26.699Z,5.10
2023-11-30T03:01:28.594Z,7.50
2023-11-30T03:06:30.487Z,2.75
2023-11-30T03:11:32.452Z,7.38
2023-11-30T03:16:34.306Z,1.48
2023-11-30T03:21:36.257Z,2.58
2023-11-30T03:26:38.228Z,2.15
2023-11-30T03:31:42.825Z,4.80
2023-11-30T03:36:47.200Z,2.20
2023-11-30T03:41:49.104Z,3.05
2023-11-30T03:46:50.947Z,1.10
2023-11-30T03:51:54.963Z,1.38
2023-11-30T03:56:57.096Z,1.88
2023-11-30T04:07:00.930Z,2.05
2023-11-30T04:12:02.853Z,0.82
2023-11-30T04:17:05.023Z,1.10
2023-11-30T04:22:09.590Z,1.27
2023-11-30T04:27:11.742Z,1.38
2023-11-30T04:32:13.700Z,0.75
2023-11-30T04:42:17.544Z,1.23
2023-11-30T04:47:19.622Z,6.00
2023-11-30T04:57:25.640Z,1.95
2023-11-30T05:07:29.525Z,6.30
2023-11-30T05:17:34.246Z,0.70
2023-11-30T05:22:36.101Z,2.03
2023-11-30T05:27:37.936Z,1.33
2023-11-30T05:37:46.874Z,1.13
2023-11-30T05:42:49.096Z,1.40
2023-11-30T05:47:53.923Z,3.80
2023-11-30T05:52:55.755Z,1.35
2023-11-30T05:57:57.915Z,2.67
2023-11-30T06:02:59.844Z,12.10
2023-11-30T06:08:04.201Z,1.83
2023-11-30T06:13:08.593Z,0.65
2023-11-30T06:18:10.576Z,2.70
2023-11-30T06:23:12.412Z,0.50
2023-11-30T06:28:14.212Z,1.55
2023-11-30T06:33:16.177Z,0.68
2023-11-30T06:38:18.373Z,3.53
2023-11-30T06:43:20.347Z,0.68
2023-11-30T06:48:24.783Z,1.33
2023-11-30T06:53:26.802Z,2.63
2023-11-30T06:58:30.758Z,1.70
2023-11-30T07:03:42.524Z,1.55
2023-11-30T07:08:47.828Z,0.57
2023-11-30T07:13:49.642Z,1.20
2023-11-30T07:18:53.134Z,2.92
2023-11-30T07:23:56.000Z,1.27
2023-11-30T07:28:57.905Z,2.20
2023-11-30T07:34:00.177Z,1.13
2023-11-30T07:39:02.233Z,1.23
2023-11-30T07:44:06.708Z,1.38
2023-11-30T07:49:08.718Z,0.80
2023-11-30T07:54:10.687Z,1.88
2023-11-30T07:59:14.003Z,1.88
2023-11-30T08:04:16.324Z,4.53
2023-11-30T08:09:18.321Z,1.85
2023-11-30T08:33:02.853Z,1.35
2023-11-30T08:38:05.770Z,4.20
2023-11-30T08:43:07.645Z,3.58
2023-11-30T08:48:11.782Z,0.55
2023-11-30T08:53:13.817Z,3.22
2023-11-30T08:58:15.840Z,1.95
2023-11-30T09:08:22.966Z,2.33
2023-11-30T09:13:25.098Z,7.00
2023-11-30T09:18:27.151Z,5.22
2023-11-30T09:28:33.408Z,1.38
2023-11-30T09:33:35.347Z,1.40
2023-11-30T09:38:37.370Z,2.13
2023-11-30T09:43:39.350Z,2.90
2023-11-30T09:48:43.987Z,2.17
2023-11-30T09:53:48.219Z,3.10
2023-11-30T09:58:50.041Z,2.00
2023-11-30T10:03:53.007Z,8.20
2023-11-30T10:09:03.362Z,2.25
2023-11-30T10:14:05.419Z,1.60
2023-11-30T10:24:11.380Z,1.02
2023-11-30T10:29:18.380Z,3.92
2023-11-30T10:34:28.841Z,5.10
2023-11-30T10:39:39.820Z,5.35
2023-11-30T10:44:45.626Z,5.55
2023-11-30T10:49:50.383Z,1.48
2023-11-30T10:55:10.593Z,3.40
2023-11-30T11:00:18.255Z,1.92
2023-11-30T11:05:22.256Z,0.88
2023-11-30T11:10:28.813Z,1.45
2023-11-30T11:15:34.140Z,1.48
2023-11-30T11:20:38.193Z,6.32
2023-11-30T11:25:40.863Z,2.70
2023-11-30T11:30:49.122Z,6.07
2023-11-30T11:35:51.629Z,1.40
2023-11-30T11:40:55.343Z,4.35
2023-11-30T11:45:57.752Z,2.03
2023-11-30T11:51:00.545Z,1.98
2023-11-30T11:56:04.619Z,2.97
2023-11-30T12:01:07.042Z,6.10
2023-11-30T12:06:12.644Z,2.63
2023-11-30T12:11:14.788Z,2.10
2023-11-30T12:16:16.912Z,1.00
2023-11-30T12:21:22.858Z,0.95
2023-11-30T12:26:24.804Z,2.42
2023-11-30T12:31:27.237Z,1.63
2023-11-30T12:36:29.317Z,2.28
2023-11-30T12:41:31.914Z,2.63
2023-11-30T12:46:36.153Z,4.78
2023-11-30T12:51:40.695Z,1.85
2023-11-30T12:56:48.133Z,3.95
2023-11-30T13:01:52.873Z,3.42
2023-11-30T13:06:55.659Z,4.35
2023-11-30T13:12:00.074Z,4.13
2023-11-30T13:17:02.491Z,4.18
2023-11-30T13:22:06.235Z,2.40
2023-11-30T13:27:08.673Z,7.47
2023-11-30T13:37:13.401Z,2.40
2023-11-30T13:42:17.760Z,4.90
2023-11-30T13:47:21.143Z,8.10
2023-11-30T13:52:25.874Z,1.90
2023-11-30T13:57:28.105Z,3.88
2023-11-30T14:02:30.225Z,3.65
2023-11-30T14:07:34.584Z,5.30
2023-11-30T14:12:37.265Z,8.45
2023-11-30T14:17:40.127Z,2.95
2023-11-30T14:22:42.542Z,4.07
2023-11-30T14:27:45.497Z,3.08
2023-11-30T14:32:55.013Z,1.70
2023-11-30T14:37:57.039Z,2.70
2023-11-30T14:43:01.294Z,2.55
2023-11-30T14:48:03.470Z,3.10
2023-11-30T14:53:12.179Z,3.38
2023-11-30T14:58:14.811Z,2.92
2023-11-30T15:03:19.970Z,3.15
2023-11-30T15:08:22.362Z,2.67
2023-11-30T15:13:25.866Z,3.90
2023-11-30T15:18:28.888Z,4.38
2023-11-30T15:23:31.668Z,5.15
2023-11-30T15:28:33.892Z,5.63
2023-11-30T15:33:36.546Z,4.60
2023-11-30T15:38:40.582Z,6.57
2023-11-30T15:43:55.055Z,4.68
2023-11-30T15:48:57.346Z,15.55
2023-11-30T15:53:59.551Z,6.05
2023-11-30T15:59:02.064Z,6.53
2023-11-30T16:04:04.569Z,4.15
2023-11-30T16:09:07.330Z,6.70
2023-11-30T16:14:11.184Z,6.00
2023-11-30T16:19:13.283Z,7.32
2023-11-30T16:24:17.857Z,7.40
2023-11-30T16:35:23.735Z,47.55
2023-11-30T16:40:25.794Z,9.73
2023-11-30T16:45:28.983Z,9.07
2023-11-30T16:50:31.630Z,8.40
2023-11-30T16:55:38.509Z,7.93
2023-11-30T17:00:40.684Z,13.52
2023-11-30T17:05:42.733Z,10.85
2023-11-30T17:10:46.354Z,10.25
2023-11-30T17:15:49.118Z,9.60
2023-11-30T17:20:53.101Z,16.10
2023-11-30T17:25:55.033Z,14.23
2023-11-30T17:30:59.292Z,16.67
2023-11-30T17:36:01.352Z,15.38
2023-11-30T17:41:03.235Z,14.20
2023-11-30T17:46:09.676Z,20.48
2023-11-30T17:51:18.817Z,13.77
2023-11-30T17:56:21.507Z,11.27
2023-11-30T18:01:25.900Z,17.02
2023-11-30T18:06:33.533Z,17.35
2023-11-30T18:11:35.555Z,17.70
2023-11-30T18:16:37.790Z,28.65
2023-11-30T18:21:39.739Z,31.27
2023-11-30T18:26:43.755Z,30.15
2023-11-30T18:31:45.602Z,33.33
2023-11-30T18:36:47.778Z,24.75
2023-11-30T18:41:52.433Z,45.13
2023-11-30T18:46:56.906Z,25.35
2023-11-30T18:51:58.854Z,16.67
2023-11-30T18:57:01.602Z,19.00
2023-11-30T19:02:07.123Z,15.88
2023-11-30T20:08:52.600Z,85.55
2023-11-30T20:31:17.795Z,73.00
2023-11-30T20:36:20.001Z,86.80
2023-11-30T20:41:22.550Z,102.03
2023-11-30T20:46:24.550Z,90.53
2023-11-30T20:51:28.962Z,85.93
2023-11-30T20:56:30.788Z,110.88
2023-11-30T21:06:38.107Z,94.43
2023-11-30T21:11:40.093Z,104.72
2023-11-30T21:32:38.051Z,48.50
2023-11-30T21:37:39.888Z,61.88
2023-11-30T21:42:42.029Z,52.70
2023-11-30T21:47:43.949Z,49.08
2023-11-30T21:57:57.214Z,28.40
2023-11-30T22:03:00.390Z,19.73
2023-11-30T22:08:02.583Z,17.20
2023-11-30T22:13:04.550Z,24.13
2023-11-30T22:18:06.479Z,29.73
2023-11-30T22:28:10.125Z,20.05
2023-11-30T22:33:12.097Z,22.70
2023-11-30T22:38:14.013Z,11.55
2023-11-30T22:43:15.930Z,11.18
2023-11-30T22:53:19.606Z,26.85
2023-11-30T23:03:23.969Z,21.98
2023-11-30T23:08:28.254Z,20.63
2023-11-30T23:13:30.080Z,16.27
2023-11-30T23:23:33.953Z,10.05
2023-11-30T23:28:36.011Z,10.70
2023-11-30T23:33:38.029Z,12.15
2023-11-30T23:38:39.989Z,8.77
2023-11-30T23:43:41.848Z,12.75
2023-11-30T23:53:47.882Z,15.43
2023-11-30T23:58:49.781Z,19.63
